sensor_id;sensor_type;location;lat;lon;timestamp;pressure;altitude;pressure_sealevel;temperature;humidity
34742;BME280;20968;42.696;23.360;2022-10-31T00:01:00;95713.44;;;16.73;49.53
34742;BME280;20968;42.696;23.360;2022-10-31T00:03:25;95707.38;;;16.69;49.66
34742;BME280;20968;42.696;23.360;2022-10-31T00:05:52;95715.44;;;16.78;49.25
34742;BME280;20968;42.696;23.360;2022-10-31T00:08:18;95714.97;;;16.80;49.63
34742;BME280;20968;42.696;23.360;2022-10-31T00:10:44;95701.81;;;16.69;49.54
34742;BME280;20968;42.696;23.360;2022-10-31T00:13:11;95704.06;;;16.65;49.23
34742;BME280;20968;42.696;23.360;2022-10-31T00:15:38;95709.88;;;16.56;50.07
34742;BME280;20968;42.696;23.360;2022-10-31T00:18:05;95712.16;;;16.52;49.84
34742;BME280;20968;42.696;23.360;2022-10-31T00:20:31;95711.88;;;16.50;50.17
34742;BME280;20968;42.696;23.360;2022-10-31T00:22:57;95712.38;;;16.43;50.51
34742;BME280;20968;42.696;23.360;2022-10-31T00:25:23;95706.31;;;16.45;50.81
34742;BME280;20968;42.696;23.360;2022-10-31T00:27:49;95706.56;;;16.41;50.83
34742;BME280;20968;42.696;23.360;2022-10-31T00:30:14;95709.09;;;16.50;50.44
34742;BME280;20968;42.696;23.360;2022-10-31T00:32:40;95701.28;;;16.49;50.90
34742;BME280;20968;42.696;23.360;2022-10-31T00:35:05;95702.56;;;16.53;50.46
34742;BME280;20968;42.696;23.360;2022-10-31T00:37:31;95706.34;;;16.56;50.61
34742;BME280;20968;42.696;23.360;2022-10-31T00:39:56;95696.47;;;16.60;50.90
34742;BME280;20968;42.696;23.360;2022-10-31T00:42:22;95711.41;;;16.63;50.92
34742;BME280;20968;42.696;23.360;2022-10-31T00:44:47;95707.59;;;16.60;50.65
34742;BME280;20968;42.696;23.360;2022-10-31T00:47:12;95710.13;;;16.58;50.70
34742;BME280;20968;42.696;23.360;2022-10-31T00:49:38;95700.78;;;16.61;51.24
34742;BME280;20968;42.696;23.360;2022-10-31T00:52:03;95706.09;;;16.70;50.95
34742;BME280;20968;42.696;23.360;2022-10-31T00:54:29;95710.16;;;16.69;50.80
34742;BME280;20968;42.696;23.360;2022-10-31T00:56:56;95709.91;;;16.73;50.86
34742;BME280;20968;42.696;23.360;2022-10-31T00:59:21;95701.28;;;16.49;51.30
34742;BME280;20968;42.696;23.360;2022-10-31T01:01:47;95704.31;;;16.56;50.92
34742;BME280;20968;42.696;23.360;2022-10-31T01:04:12;95712.66;;;16.45;51.30
34742;BME280;20968;42.696;23.360;2022-10-31T01:06:38;95707.81;;;16.40;51.20
34742;BME280;20968;42.696;23.360;2022-10-31T01:09:03;95713.38;;;16.35;50.89
34742;BME280;20968;42.696;23.360;2022-10-31T01:11:28;95708.25;;;16.17;52.28
34742;BME280;20968;42.696;23.360;2022-10-31T01:13:54;95717.09;;;16.16;52.04
34742;BME280;20968;42.696;23.360;2022-10-31T01:16:22;95719.63;;;16.14;51.74
34742;BME280;20968;42.696;23.360;2022-10-31T01:18:48;95715.53;;;16.04;52.37
34742;BME280;20968;42.696;23.360;2022-10-31T01:21:22;95714.72;;;15.92;52.24
34742;BME280;20968;42.696;23.360;2022-10-31T01:23:49;95723.06;;;15.87;52.32
34742;BME280;20968;42.696;23.360;2022-10-31T01:26:18;95723.47;;;15.69;52.74
34742;BME280;20968;42.696;23.360;2022-10-31T01:28:46;95724.13;;;15.48;53.57
34742;BME280;20968;42.696;23.360;2022-10-31T01:31:12;95730.03;;;14.93;55.01
34742;BME280;20968;42.696;23.360;2022-10-31T01:33:37;95727.78;;;14.67;55.54
34742;BME280;20968;42.696;23.360;2022-10-31T01:38:50;95727.75;;;14.61;56.43
34742;BME280;20968;42.696;23.360;2022-10-31T01:41:19;95715.72;;;14.70;56.07
34742;BME280;20968;42.696;23.360;2022-10-31T01:43:59;95735.03;;;14.84;56.01
34742;BME280;20968;42.696;23.360;2022-10-31T01:48:59;95744.44;;;14.97;55.53
34742;BME280;20968;42.696;23.360;2022-10-31T01:51:30;95721.38;;;14.80;55.62
34742;BME280;20968;42.696;23.360;2022-10-31T01:54:01;95724.72;;;14.90;55.39
34742;BME280;20968;42.696;23.360;2022-10-31T01:56:27;95722.97;;;14.92;55.50
34742;BME280;20968;42.696;23.360;2022-10-31T01:58:54;95718.72;;;14.97;55.54
34742;BME280;20968;42.696;23.360;2022-10-31T02:01:20;95717.53;;;15.03;55.24
34742;BME280;20968;42.696;23.360;2022-10-31T02:03:46;95706.94;;;15.07;55.37
34742;BME280;20968;42.696;23.360;2022-10-31T02:08:57;95707.91;;;15.04;55.20
34742;BME280;20968;42.696;23.360;2022-10-31T02:11:24;95712.94;;;15.00;55.54
34742;BME280;20968;42.696;23.360;2022-10-31T02:13:50;95715.50;;;15.04;55.14
34742;BME280;20968;42.696;23.360;2022-10-31T02:16:15;95719.06;;;15.10;55.32
34742;BME280;20968;42.696;23.360;2022-10-31T02:18:40;95722.28;;;15.03;55.83
34742;BME280;20968;42.696;23.360;2022-10-31T02:26:23;95743.63;;;14.91;55.84
34742;BME280;20968;42.696;23.360;2022-10-31T02:32:09;95736.94;;;14.73;56.80
34742;BME280;20968;42.696;23.360;2022-10-31T02:37:22;95739.25;;;14.79;56.85
34742;BME280;20968;42.696;23.360;2022-10-31T02:40:15;95747.03;;;14.76;57.02
34742;BME280;20968;42.696;23.360;2022-10-31T02:42:51;95750.81;;;14.73;56.97
34742;BME280;20968;42.696;23.360;2022-10-31T02:45:26;95749.63;;;14.84;56.73
34742;BME280;20968;42.696;23.360;2022-10-31T02:47:55;95748.22;;;14.94;56.57
34742;BME280;20968;42.696;23.360;2022-10-31T02:50:31;95759.53;;;14.91;56.74
34742;BME280;20968;42.696;23.360;2022-10-31T02:52:58;95745.94;;;14.68;57.37
34742;BME280;20968;42.696;23.360;2022-10-31T03:00:41;95757.69;;;14.82;57.09
34742;BME280;20968;42.696;23.360;2022-10-31T03:05:55;95763.00;;;14.86;57.44
34742;BME280;20968;42.696;23.360;2022-10-31T03:08:47;95761.97;;;14.83;57.10
34742;BME280;20968;42.696;23.360;2022-10-31T03:11:17;95751.66;;;14.84;57.80
34742;BME280;20968;42.696;23.360;2022-10-31T03:14:09;95762.47;;;14.82;57.41
34742;BME280;20968;42.696;23.360;2022-10-31T03:16:51;95764.28;;;14.90;57.83
34742;BME280;20968;42.696;23.360;2022-10-31T03:21:49;95763.84;;;14.97;57.68
34742;BME280;20968;42.696;23.360;2022-10-31T03:24:18;95765.88;;;14.97;57.03
34742;BME280;20968;42.696;23.360;2022-10-31T03:26:48;95766.84;;;14.94;57.48
34742;BME280;20968;42.696;23.360;2022-10-31T03:29:16;95762.59;;;14.98;57.05
34742;BME280;20968;42.696;23.360;2022-10-31T03:31:51;95763.63;;;15.01;57.42
34742;BME280;20968;42.696;23.360;2022-10-31T03:34:20;95767.13;;;14.96;57.31
34742;BME280;20968;42.696;23.360;2022-10-31T03:36:49;95763.09;;;14.97;57.41
34742;BME280;20968;42.696;23.360;2022-10-31T03:39:19;95775.44;;;14.96;57.53
34742;BME280;20968;42.696;23.360;2022-10-31T03:42:21;95774.69;;;14.95;57.68
34742;BME280;20968;42.696;23.360;2022-10-31T03:44:43;95773.41;;;14.96;57.55
34742;BME280;20968;42.696;23.360;2022-10-31T03:47:10;95779.19;;;14.93;57.83
34742;BME280;20968;42.696;23.360;2022-10-31T03:49:35;95774.16;;;14.91;57.66
34742;BME280;20968;42.696;23.360;2022-10-31T03:54:48;95784.72;;;14.87;57.92
34742;BME280;20968;42.696;23.360;2022-10-31T03:57:39;95778.59;;;14.83;57.54
34742;BME280;20968;42.696;23.360;2022-10-31T04:00:12;95788.50;;;14.90;57.54
34742;BME280;20968;42.696;23.360;2022-10-31T04:02:48;95789.75;;;14.89;57.51
34742;BME280;20968;42.696;23.360;2022-10-31T04:05:17;95781.09;;;14.81;57.49
34742;BME280;20968;42.696;23.360;2022-10-31T04:07:46;95786.34;;;14.74;58.07
34742;BME280;20968;42.696;23.360;2022-10-31T04:10:14;95788.63;;;14.76;57.51
34742;BME280;20968;42.696;23.360;2022-10-31T04:12:43;95790.31;;;14.68;57.85
34742;BME280;20968;42.696;23.360;2022-10-31T04:15:12;95795.41;;;14.75;58.09
34742;BME280;20968;42.696;23.360;2022-10-31T04:17:41;95795.75;;;14.82;57.87
34742;BME280;20968;42.696;23.360;2022-10-31T04:20:10;95791.97;;;14.85;57.57
34742;BME280;20968;42.696;23.360;2022-10-31T04:22:36;95799.66;;;14.95;58.22
34742;BME280;20968;42.696;23.360;2022-10-31T04:25:02;95797.84;;;14.92;58.25
34742;BME280;20968;42.696;23.360;2022-10-31T04:27:27;95803.97;;;15.02;58.04
34742;BME280;20968;42.696;23.360;2022-10-31T04:29:53;95792.09;;;14.96;58.09
34742;BME280;20968;42.696;23.360;2022-10-31T04:32:18;95805.28;;;15.06;57.79
34742;BME280;20968;42.696;23.360;2022-10-31T04:34:44;95793.34;;;14.95;58.03
34742;BME280;20968;42.696;23.360;2022-10-31T04:37:09;95795.59;;;14.96;57.77
34742;BME280;20968;42.696;23.360;2022-10-31T04:39:35;95796.59;;;14.93;58.14
34742;BME280;20968;42.696;23.360;2022-10-31T04:42:00;95806.69;;;14.96;57.96
34742;BME280;20968;42.696;23.360;2022-10-31T04:44:25;95800.91;;;14.94;58.12
34742;BME280;20968;42.696;23.360;2022-10-31T04:46:52;95809.66;;;14.87;57.76
34742;BME280;20968;42.696;23.360;2022-10-31T04:49:17;95804.34;;;14.84;57.42
34742;BME280;20968;42.696;23.360;2022-10-31T04:51:43;95817.66;;;14.80;58.07
34742;BME280;20968;42.696;23.360;2022-10-31T04:54:09;95814.50;;;14.67;58.55
34742;BME280;20968;42.696;23.360;2022-10-31T04:56:34;95822.59;;;14.71;58.63
34742;BME280;20968;42.696;23.360;2022-10-31T04:59:00;95819.03;;;14.65;58.56
34742;BME280;20968;42.696;23.360;2022-10-31T05:01:27;95817.06;;;14.71;58.41
34742;BME280;20968;42.696;23.360;2022-10-31T05:03:53;95810.94;;;14.61;58.18
34742;BME280;20968;42.696;23.360;2022-10-31T05:06:18;95822.88;;;14.73;57.67
34742;BME280;20968;42.696;23.360;2022-10-31T05:08:45;95819.56;;;14.69;58.29
34742;BME280;20968;42.696;23.360;2022-10-31T05:11:10;95821.50;;;14.63;57.87
34742;BME280;20968;42.696;23.360;2022-10-31T05:13:36;95829.56;;;14.61;58.05
34742;BME280;20968;42.696;23.360;2022-10-31T05:16:02;95835.31;;;14.57;58.92
34742;BME280;20968;42.696;23.360;2022-10-31T05:18:28;95837.34;;;14.57;58.76
34742;BME280;20968;42.696;23.360;2022-10-31T05:20:53;95843.13;;;14.59;58.85
34742;BME280;20968;42.696;23.360;2022-10-31T05:23:19;95851.72;;;14.61;58.49
34742;BME280;20968;42.696;23.360;2022-10-31T05:25:44;95845.66;;;14.57;58.49
34742;BME280;20968;42.696;23.360;2022-10-31T05:28:10;95839.88;;;14.60;58.99
34742;BME280;20968;42.696;23.360;2022-10-31T05:30:35;95841.94;;;14.65;58.27
34742;BME280;20968;42.696;23.360;2022-10-31T05:33:01;95848.06;;;14.69;58.30
34742;BME280;20968;42.696;23.360;2022-10-31T05:35:28;95852.53;;;14.67;58.44
34742;BME280;20968;42.696;23.360;2022-10-31T05:37:54;95853.25;;;14.62;58.51
34742;BME280;20968;42.696;23.360;2022-10-31T05:40:20;95853.03;;;14.65;58.35
34742;BME280;20968;42.696;23.360;2022-10-31T05:42:47;95848.53;;;14.68;58.44
34742;BME280;20968;42.696;23.360;2022-10-31T05:45:15;95853.84;;;14.71;58.44
34742;BME280;20968;42.696;23.360;2022-10-31T05:47:41;95864.03;;;14.79;58.19
34742;BME280;20968;42.696;23.360;2022-10-31T05:50:09;95867.72;;;14.71;58.51
34742;BME280;20968;42.696;23.360;2022-10-31T05:52:35;95856.78;;;14.62;58.36
34742;BME280;20968;42.696;23.360;2022-10-31T05:55:01;95858.94;;;14.53;58.55
34742;BME280;20968;42.696;23.360;2022-10-31T05:57:26;95864.00;;;14.54;58.39
34742;BME280;20968;42.696;23.360;2022-10-31T05:59:53;95870.47;;;14.46;58.41
34742;BME280;20968;42.696;23.360;2022-10-31T06:02:19;95872.25;;;14.49;58.79
34742;BME280;20968;42.696;23.360;2022-10-31T06:04:44;95881.97;;;14.39;58.11
34742;BME280;20968;42.696;23.360;2022-10-31T06:07:10;95871.59;;;14.34;58.64
34742;BME280;20968;42.696;23.360;2022-10-31T06:09:35;95878.69;;;14.40;58.52
34742;BME280;20968;42.696;23.360;2022-10-31T06:12:01;95877.31;;;14.50;58.48
34742;BME280;20968;42.696;23.360;2022-10-31T06:14:26;95875.94;;;14.60;58.21
34742;BME280;20968;42.696;23.360;2022-10-31T06:16:51;95886.59;;;14.67;58.22
34742;BME280;20968;42.696;23.360;2022-10-31T06:19:17;95893.31;;;14.80;58.65
34742;BME280;20968;42.696;23.360;2022-10-31T06:21:42;95900.97;;;14.91;57.93
34742;BME280;20968;42.696;23.360;2022-10-31T06:24:08;95900.25;;;14.96;58.40
34742;BME280;20968;42.696;23.360;2022-10-31T06:26:40;95895.59;;;15.07;58.21
34742;BME280;20968;42.696;23.360;2022-10-31T06:29:14;95907.41;;;15.28;57.93
34742;BME280;20968;42.696;23.360;2022-10-31T06:31:39;95895.38;;;15.36;57.46
34742;BME280;20968;42.696;23.360;2022-10-31T06:34:05;95903.44;;;15.65;65.47
34742;BME280;20968;42.696;23.360;2022-10-31T06:36:30;95908.06;;;16.10;63.47
34742;BME280;20968;42.696;23.360;2022-10-31T06:38:55;95904.88;;;16.28;61.51
34742;BME280;20968;42.696;23.360;2022-10-31T06:41:21;95907.34;;;16.62;60.79
34742;BME280;20968;42.696;23.360;2022-10-31T06:43:46;95917.06;;;16.94;58.64
34742;BME280;20968;42.696;23.360;2022-10-31T06:46:12;95915.59;;;17.09;57.21
34742;BME280;20968;42.696;23.360;2022-10-31T06:48:40;95909.56;;;17.27;54.81
34742;BME280;20968;42.696;23.360;2022-10-31T06:51:06;95914.91;;;17.36;53.95
34742;BME280;20968;42.696;23.360;2022-10-31T06:53:31;95906.84;;;17.38;53.51
34742;BME280;20968;42.696;23.360;2022-10-31T06:55:57;95914.66;;;17.50;54.55
34742;BME280;20968;42.696;23.360;2022-10-31T06:58:23;95924.56;;;17.68;52.71
34742;BME280;20968;42.696;23.360;2022-10-31T07:00:49;95925.59;;;17.76;54.27
34742;BME280;20968;42.696;23.360;2022-10-31T07:03:15;95922.03;;;17.97;52.23
34742;BME280;20968;42.696;23.360;2022-10-31T07:05:41;95918.47;;;17.96;53.54
34742;BME280;20968;42.696;23.360;2022-10-31T07:08:10;95920.50;;;18.07;52.06
34742;BME280;20968;42.696;23.360;2022-10-31T07:10:37;95922.75;;;18.19;51.90
34742;BME280;20968;42.696;23.360;2022-10-31T07:13:05;95922.75;;;18.19;52.87
34742;BME280;20968;42.696;23.360;2022-10-31T07:15:36;95916.44;;;18.30;53.47
34742;BME280;20968;42.696;23.360;2022-10-31T07:18:07;95921.44;;;18.53;52.76
34742;BME280;20968;42.696;23.360;2022-10-31T07:20:34;95915.03;;;18.69;52.28
34742;BME280;20968;42.696;23.360;2022-10-31T07:23:00;95903.13;;;18.69;51.59
34742;BME280;20968;42.696;23.360;2022-10-31T07:25:26;95897.28;;;18.72;51.46
34742;BME280;20968;42.696;23.360;2022-10-31T07:27:52;95896.47;;;18.82;50.47
34742;BME280;20968;42.696;23.360;2022-10-31T07:30:17;95884.31;;;18.80;51.48
34742;BME280;20968;42.696;23.360;2022-10-31T07:32:48;95895.44;;;18.85;51.55
34742;BME280;20968;42.696;23.360;2022-10-31T07:35:22;95893.56;;;19.10;50.38
34742;BME280;20968;42.696;23.360;2022-10-31T07:37:48;95905.22;;;19.08;49.82
34742;BME280;20968;42.696;23.360;2022-10-31T07:40:13;95890.63;;;18.86;50.54
34742;BME280;20968;42.696;23.360;2022-10-31T07:42:40;95903.78;;;18.91;51.03
34742;BME280;20968;42.696;23.360;2022-10-31T07:45:09;95899.75;;;18.86;51.12
34742;BME280;20968;42.696;23.360;2022-10-31T07:47:53;95901.75;;;18.97;51.29
34742;BME280;20968;42.696;23.360;2022-10-31T07:50:24;95901.97;;;18.99;49.80
34742;BME280;20968;42.696;23.360;2022-10-31T07:53:07;95904.31;;;18.84;50.86
34742;BME280;20968;42.696;23.360;2022-10-31T07:55:34;95900.97;;;18.91;51.20
34742;BME280;20968;42.696;23.360;2022-10-31T07:58:12;95901.94;;;19.04;50.57
34742;BME280;20968;42.696;23.360;2022-10-31T08:00:39;95897.88;;;19.05;50.94
34742;BME280;20968;42.696;23.360;2022-10-31T08:05:31;95911.75;;;19.27;50.37
34742;BME280;20968;42.696;23.360;2022-10-31T08:07:59;95902.66;;;19.16;50.12
34742;BME280;20968;42.696;23.360;2022-10-31T08:10:25;95904.41;;;19.24;50.61
34742;BME280;20968;42.696;23.360;2022-10-31T08:12:58;95901.63;;;19.24;50.81
34742;BME280;20968;42.696;23.360;2022-10-31T08:15:25;95892.69;;;19.31;50.41
34742;BME280;20968;42.696;23.360;2022-10-31T08:17:51;95892.16;;;19.33;49.34
34742;BME280;20968;42.696;23.360;2022-10-31T08:20:16;95899.41;;;19.12;49.42
34742;BME280;20968;42.696;23.360;2022-10-31T08:22:42;95897.25;;;18.83;50.75
34742;BME280;20968;42.696;23.360;2022-10-31T08:25:08;95899.78;;;18.81;50.65
34742;BME280;20968;42.696;23.360;2022-10-31T08:27:33;95902.34;;;18.73;50.71
34742;BME280;20968;42.696;23.360;2022-10-31T08:29:59;95883.94;;;18.49;51.29
34742;BME280;20968;42.696;23.360;2022-10-31T08:32:24;95892.78;;;18.47;51.78
34742;BME280;20968;42.696;23.360;2022-10-31T08:34:50;95889.53;;;18.43;51.73
34742;BME280;20968;42.696;23.360;2022-10-31T08:37:15;95886.94;;;18.51;51.67
34742;BME280;20968;42.696;23.360;2022-10-31T08:39:46;95891.00;;;18.50;51.98
34742;BME280;20968;42.696;23.360;2022-10-31T08:42:11;95890.53;;;18.40;52.19
34742;BME280;20968;42.696;23.360;2022-10-31T08:44:36;95889.03;;;18.34;52.49
34742;BME280;20968;42.696;23.360;2022-10-31T08:47:05;95889.56;;;18.27;52.70
34742;BME280;20968;42.696;23.360;2022-10-31T08:49:30;95890.03;;;18.42;52.68
34742;BME280;20968;42.696;23.360;2022-10-31T08:51:56;95889.75;;;18.45;52.41
34742;BME280;20968;42.696;23.360;2022-10-31T08:54:21;95891.78;;;18.50;52.37
34742;BME280;20968;42.696;23.360;2022-10-31T08:56:47;95882.63;;;18.55;52.83
34742;BME280;20968;42.696;23.360;2022-10-31T08:59:12;95891.44;;;18.70;53.03
34742;BME280;20968;42.696;23.360;2022-10-31T09:01:37;95886.06;;;18.83;52.08
34742;BME280;20968;42.696;23.360;2022-10-31T09:04:03;95896.47;;;18.82;52.27
34742;BME280;20968;42.696;23.360;2022-10-31T09:06:28;95897.88;;;19.05;51.77
34742;BME280;20968;42.696;23.360;2022-10-31T09:08:53;95891.22;;;19.19;51.20
34742;BME280;20968;42.696;23.360;2022-10-31T09:11:19;95879.72;;;19.34;50.86
34742;BME280;20968;42.696;23.360;2022-10-31T09:13:44;95885.28;;;19.39;51.23
34742;BME280;20968;42.696;23.360;2022-10-31T09:16:10;95880.84;;;19.49;51.05
34742;BME280;20968;42.696;23.360;2022-10-31T09:18:35;95879.72;;;19.63;50.34
34742;BME280;20968;42.696;23.360;2022-10-31T09:21:00;95875.06;;;19.76;49.93
34742;BME280;20968;42.696;23.360;2022-10-31T09:23:26;95869.38;;;19.87;51.15
34742;BME280;20968;42.696;23.360;2022-10-31T09:25:53;95880.63;;;20.11;50.78
34742;BME280;20968;42.696;23.360;2022-10-31T09:28:20;95878.59;;;20.35;49.64
34742;BME280;20968;42.696;23.360;2022-10-31T09:30:47;95875.13;;;20.48;48.53
34742;BME280;20968;42.696;23.360;2022-10-31T09:33:13;95879.66;;;20.51;48.58
34742;BME280;20968;42.696;23.360;2022-10-31T09:35:40;95872.81;;;20.70;48.37
34742;BME280;20968;42.696;23.360;2022-10-31T09:38:08;95868.59;;;20.88;47.87
34742;BME280;20968;42.696;23.360;2022-10-31T09:40:35;95871.75;;;20.97;47.09
34742;BME280;20968;42.696;23.360;2022-10-31T09:43:30;95872.66;;;21.05;46.66
34742;BME280;20968;42.696;23.360;2022-10-31T09:51:24;95860.59;;;21.47;46.41
34742;BME280;20968;42.696;23.360;2022-10-31T09:54:18;95869.19;;;21.54;45.84
34742;BME280;20968;42.696;23.360;2022-10-31T09:56:45;95866.94;;;21.66;45.71
34742;BME280;20968;42.696;23.360;2022-10-31T09:59:57;95866.31;;;21.73;45.38
34742;BME280;20968;42.696;23.360;2022-10-31T10:04:42;95850.19;;;21.92;45.01
34742;BME280;20968;42.696;23.360;2022-10-31T10:13:09;95845.34;;;22.36;44.80
34742;BME280;20968;42.696;23.360;2022-10-31T10:21:11;95828.00;;;22.84;42.86
34742;BME280;20968;42.696;23.360;2022-10-31T10:26:38;95826.13;;;23.12;42.72
34742;BME280;20968;42.696;23.360;2022-10-31T10:29:29;95829.31;;;23.29;42.13
34742;BME280;20968;42.696;23.360;2022-10-31T10:32:01;95827.41;;;23.45;42.39
34742;BME280;20968;42.696;23.360;2022-10-31T10:34:39;95818.44;;;23.66;41.60
34742;BME280;20968;42.696;23.360;2022-10-31T10:37:17;95815.78;;;23.81;40.51
34742;BME280;20968;42.696;23.360;2022-10-31T10:39:49;95809.81;;;23.85;40.76
34742;BME280;20968;42.696;23.360;2022-10-31T10:42:16;95800.34;;;23.95;40.07
34742;BME280;20968;42.696;23.360;2022-10-31T10:45:15;95798.28;;;23.96;39.74
34742;BME280;20968;42.696;23.360;2022-10-31T10:50:54;95790.38;;;24.15;39.60
34742;BME280;20968;42.696;23.360;2022-10-31T10:58:31;95799.69;;;25.01;38.09
34742;BME280;20968;42.696;23.360;2022-10-31T11:00:57;95801.28;;;25.17;37.69
34742;BME280;20968;42.696;23.360;2022-10-31T11:03:22;95792.25;;;25.18;37.59
34742;BME280;20968;42.696;23.360;2022-10-31T11:05:50;95791.56;;;25.40;36.92
34742;BME280;20968;42.696;23.360;2022-10-31T11:08:32;95786.31;;;25.66;36.86
34742;BME280;20968;42.696;23.360;2022-10-31T11:13:44;95781.09;;;26.07;36.73
34742;BME280;20968;42.696;23.360;2022-10-31T11:16:12;95779.56;;;26.21;35.95
34742;BME280;20968;42.696;23.360;2022-10-31T11:18:43;95770.16;;;26.26;34.89
34742;BME280;20968;42.696;23.360;2022-10-31T11:21:27;95764.13;;;26.30;35.22
34742;BME280;20968;42.696;23.360;2022-10-31T11:26:35;95762.84;;;25.94;35.43
34742;BME280;20968;42.696;23.360;2022-10-31T11:29:03;95762.47;;;25.97;34.53
34742;BME280;20968;42.696;23.360;2022-10-31T11:31:29;95757.94;;;25.87;35.53
34742;BME280;20968;42.696;23.360;2022-10-31T11:34:12;95760.00;;;26.16;35.29
34742;BME280;20968;42.696;23.360;2022-10-31T11:36:39;95746.41;;;26.29;35.66
34742;BME280;20968;42.696;23.360;2022-10-31T11:39:16;95750.16;;;26.32;34.83
34742;BME280;20968;42.696;23.360;2022-10-31T11:41:43;95750.53;;;26.28;34.65
34742;BME280;20968;42.696;23.360;2022-10-31T11:44:16;95749.81;;;26.20;34.55
34742;BME280;20968;42.696;23.360;2022-10-31T11:46:49;95742.69;;;26.04;34.84
34742;BME280;20968;42.696;23.360;2022-10-31T11:49:20;95743.03;;;26.23;34.72
34742;BME280;20968;42.696;23.360;2022-10-31T11:51:49;95743.56;;;26.37;34.95
34742;BME280;20968;42.696;23.360;2022-10-31T11:54:31;95734.53;;;26.46;33.96
34742;BME280;20968;42.696;23.360;2022-10-31T11:56:58;95728.13;;;26.45;34.34
34742;BME280;20968;42.696;23.360;2022-10-31T11:59:31;95738.25;;;26.63;34.20
34742;BME280;20968;42.696;23.360;2022-10-31T12:01:59;95731.69;;;26.92;33.46
34742;BME280;20968;42.696;23.360;2022-10-31T12:04:58;95727.25;;;27.21;33.19
34742;BME280;20968;42.696;23.360;2022-10-31T12:07:25;95719.31;;;27.20;32.93
34742;BME280;20968;42.696;23.360;2022-10-31T12:09:51;95729.41;;;27.06;32.92
34742;BME280;20968;42.696;23.360;2022-10-31T12:12:37;95727.09;;;27.12;33.68
34742;BME280;20968;42.696;23.360;2022-10-31T12:17:45;95721.44;;;27.12;33.40
34742;BME280;20968;42.696;23.360;2022-10-31T12:22:51;95725.66;;;27.35;32.58
34742;BME280;20968;42.696;23.360;2022-10-31T12:28:04;95719.41;;;27.37;32.31
34742;BME280;20968;42.696;23.360;2022-10-31T12:31:15;95720.19;;;27.37;32.44
34742;BME280;20968;42.696;23.360;2022-10-31T12:36:51;95714.63;;;27.47;32.73
34742;BME280;20968;42.696;23.360;2022-10-31T12:39:30;95717.75;;;27.34;33.00
34742;BME280;20968;42.696;23.360;2022-10-31T12:50:21;95717.56;;;27.00;33.53
34742;BME280;20968;42.696;23.360;2022-10-31T12:55:41;95722.41;;;27.14;33.33
34742;BME280;20968;42.696;23.360;2022-10-31T12:58:25;95717.88;;;27.11;33.03
34742;BME280;20968;42.696;23.360;2022-10-31T13:01:43;95715.25;;;27.06;33.25
34742;BME280;20968;42.696;23.360;2022-10-31T13:06:36;95715.66;;;27.02;32.95
34742;BME280;20968;42.696;23.360;2022-10-31T13:09:06;95720.00;;;27.03;33.09
34742;BME280;20968;42.696;23.360;2022-10-31T13:11:40;95717.47;;;27.15;33.94
34742;BME280;20968;42.696;23.360;2022-10-31T13:14:27;95719.00;;;27.08;33.18
34742;BME280;20968;42.696;23.360;2022-10-31T13:16:56;95723.84;;;27.23;34.43
34742;BME280;20968;42.696;23.360;2022-10-31T13:19:36;95717.34;;;27.37;33.22
34742;BME280;20968;42.696;23.360;2022-10-31T13:22:07;95717.06;;;27.50;32.34
34742;BME280;20968;42.696;23.360;2022-10-31T13:24:38;95713.41;;;27.57;32.67
34742;BME280;20968;42.696;23.360;2022-10-31T13:27:38;95710.81;;;27.52;32.41
34742;BME280;20968;42.696;23.360;2022-10-31T13:30:20;95713.13;;;27.46;32.23
34742;BME280;20968;42.696;23.360;2022-10-31T13:38:12;95711.91;;;27.63;32.37
34742;BME280;20968;42.696;23.360;2022-10-31T13:43:38;95722.00;;;27.74;32.18
34742;BME280;20968;42.696;23.360;2022-10-31T13:46:34;95718.00;;;27.77;32.64
34742;BME280;20968;42.696;23.360;2022-10-31T13:49:00;95715.53;;;27.81;33.12
34742;BME280;20968;42.696;23.360;2022-10-31T13:51:31;95714.00;;;27.80;32.76
34742;BME280;20968;42.696;23.360;2022-10-31T13:54:20;95716.63;;;27.85;32.62
34742;BME280;20968;42.696;23.360;2022-10-31T13:56:49;95713.66;;;27.76;32.97
34742;BME280;20968;42.696;23.360;2022-10-31T13:59:19;95718.06;;;27.69;32.29
34742;BME280;20968;42.696;23.360;2022-10-31T14:01:48;95723.34;;;27.41;32.43
34742;BME280;20968;42.696;23.360;2022-10-31T14:04:18;95718.81;;;27.38;33.19
34742;BME280;20968;42.696;23.360;2022-10-31T14:06:53;95716.69;;;27.22;32.79
34742;BME280;20968;42.696;23.360;2022-10-31T14:09:38;95719.06;;;27.01;32.97
34742;BME280;20968;42.696;23.360;2022-10-31T14:15:17;95724.56;;;26.45;34.30
34742;BME280;20968;42.696;23.360;2022-10-31T14:17:50;95721.41;;;26.18;34.83
34742;BME280;20968;42.696;23.360;2022-10-31T14:22:42;95724.81;;;25.65;35.76
34742;BME280;20968;42.696;23.360;2022-10-31T14:27:55;95722.31;;;25.17;36.49
34742;BME280;20968;42.696;23.360;2022-10-31T14:30:23;95719.97;;;25.00;36.89
34742;BME280;20968;42.696;23.360;2022-10-31T14:33:02;95728.19;;;24.83;37.19
34742;BME280;20968;42.696;23.360;2022-10-31T14:36:08;95727.56;;;24.62;37.33
34742;BME280;20968;42.696;23.360;2022-10-31T14:41:42;95726.63;;;24.32;37.58
34742;BME280;20968;42.696;23.360;2022-10-31T14:44:21;95723.03;;;24.24;38.01
34742;BME280;20968;42.696;23.360;2022-10-31T14:47:02;95724.47;;;24.18;38.04
34742;BME280;20968;42.696;23.360;2022-10-31T14:49:51;95727.06;;;24.08;38.46
34742;BME280;20968;42.696;23.360;2022-10-31T14:52:21;95725.69;;;24.02;38.31
34742;BME280;20968;42.696;23.360;2022-10-31T14:54:53;95722.06;;;23.94;38.34
34742;BME280;20968;42.696;23.360;2022-10-31T14:57:26;95723.34;;;23.85;38.84
34742;BME280;20968;42.696;23.360;2022-10-31T15:00:00;95715.41;;;23.76;38.85